createdAt,value
2019-03-21T00:05:32.372Z,60.77
2019-03-21T00:15:17.561Z,63.30
2019-03-21T00:21:20.698Z,73.53
2019-03-21T00:23:52.556Z,76.00
2019-03-21T00:26:44.568Z,72.37
2019-03-21T00:29:15.518Z,78.37
2019-03-21T00:31:46.355Z,75.07
2019-03-21T00:34:16.776Z,69.73
2019-03-21T00:36:47.526Z,68.53
2019-03-21T00:39:18.158Z,63.07
2019-03-21T00:41:49.388Z,65.23
2019-03-21T00:44:19.799Z,72.80
2019-03-21T00:46:50.555Z,65.20
2019-03-21T00:49:21.166Z,70.67
2019-03-21T00:51:52.412Z,70.60
2019-03-21T00:54:23.360Z,67.30
2019-03-21T00:56:54.825Z,60.53
2019-03-21T00:59:25.455Z,66.93
2019-03-21T01:01:56.284Z,62.17
2019-03-21T01:04:28.945Z,62.97
2019-03-21T01:06:59.509Z,61.50
2019-03-21T01:09:30.207Z,64.53
2019-03-21T01:12:01.044Z,72.27
2019-03-21T01:14:31.572Z,71.47
2019-03-21T01:17:02.536Z,59.47
2019-03-21T01:19:33.443Z,63.70
2019-03-21T01:22:04.082Z,60.03
2019-03-21T01:24:34.933Z,54.80
2019-03-21T01:27:05.366Z,64.57
2019-03-21T01:29:36.087Z,62.90
2019-03-21T02:18:33.639Z,58.33
2019-03-21T02:21:05.486Z,68.67
2019-03-21T02:23:35.824Z,58.80
2019-03-21T02:26:06.182Z,53.50
2019-03-21T02:28:36.881Z,64.10
2019-03-21T02:31:07.315Z,57.43
2019-03-21T02:33:38.158Z,66.23
2019-03-21T02:36:09.305Z,63.63
2019-03-21T02:38:39.706Z,51.87
2019-03-21T02:41:10.535Z,56.03
2019-03-21T02:43:41.472Z,56.97
2019-03-21T02:46:11.898Z,56.63
2019-03-21T02:48:42.550Z,60.53
2019-03-21T02:51:13.273Z,55.73
2019-03-21T02:53:44.308Z,50.53
2019-03-21T02:56:16.096Z,53.07
2019-03-21T02:58:46.506Z,60.63
2019-03-21T03:01:16.819Z,50.37
2019-03-21T03:03:47.544Z,47.33
2019-03-21T03:06:18.098Z,53.90
2019-03-21T03:08:49.448Z,49.50
2019-03-21T03:11:20.397Z,51.70
2019-03-21T03:13:51.316Z,54.97
2019-03-21T03:16:22.497Z,49.30
2019-03-21T03:18:53.487Z,48.17
2019-03-21T03:21:24.724Z,48.17
2019-03-21T03:23:54.960Z,55.23
2019-03-21T03:26:25.371Z,46.07
2019-03-21T03:28:56.011Z,47.43
2019-03-21T03:31:26.866Z,44.57
2019-03-21T03:33:57.487Z,47.27
2019-03-21T03:36:28.509Z,50.00
2019-03-21T03:39:00.068Z,47.20
2019-03-21T03:41:34.806Z,47.03
2019-03-21T03:44:05.521Z,41.27
2019-03-21T03:46:36.486Z,43.30
2019-03-21T03:49:07.807Z,41.60
2019-03-21T03:51:41.716Z,41.60
2019-03-21T03:54:14.496Z,44.17
2019-03-21T03:56:47.097Z,37.30
2019-03-21T03:59:18.356Z,45.67
2019-03-21T04:01:50.815Z,38.77
2019-03-21T04:04:21.632Z,40.20
2019-03-21T04:06:52.478Z,35.50
2019-03-21T04:09:23.724Z,35.03
2019-03-21T04:11:54.545Z,40.80
2019-03-21T04:14:25.892Z,43.10
2019-03-21T04:16:56.974Z,42.13
2019-03-21T04:19:28.167Z,40.57
2019-03-21T04:21:59.135Z,39.83
2019-03-21T04:24:30.467Z,39.33
2019-03-21T04:27:00.995Z,40.73
2019-03-21T04:29:31.945Z,38.00
2019-03-21T04:32:03.306Z,38.70
2019-03-21T04:34:39.042Z,39.33
2019-03-21T04:37:10.889Z,42.87
2019-03-21T04:39:43.465Z,36.13
2019-03-21T04:42:13.899Z,42.00
2019-03-21T04:44:50.740Z,42.93
2019-03-21T04:47:19.660Z,38.80
2019-03-21T04:49:50.710Z,43.03
2019-03-21T04:52:21.541Z,44.90
2019-03-21T04:54:52.386Z,40.03
2019-03-21T04:57:23.578Z,41.40
2019-03-21T04:59:54.764Z,36.80
2019-03-21T05:02:33.484Z,38.30
2019-03-21T05:05:06.777Z,41.97
2019-03-21T05:07:40.897Z,36.37
2019-03-21T05:10:13.565Z,37.80
2019-03-21T05:12:48.425Z,33.67
2019-03-21T05:15:24.355Z,39.87
2019-03-21T05:17:56.964Z,38.57
2019-03-21T05:20:31.859Z,40.50
2019-03-21T05:23:05.796Z,41.57
2019-03-21T05:25:39.776Z,39.93
2019-03-21T05:28:11.437Z,33.67
2019-03-21T05:30:43.494Z,36.67
2019-03-21T05:33:14.555Z,34.07
2019-03-21T05:35:48.062Z,33.53
2019-03-21T05:38:19.093Z,37.80
2019-03-21T05:40:59.068Z,31.47
2019-03-21T05:43:32.855Z,33.40
2019-03-21T05:46:03.768Z,28.83
2019-03-21T05:48:34.136Z,27.50
2019-03-21T05:51:05.762Z,29.33
2019-03-21T05:53:36.907Z,31.50
2019-03-21T05:56:07.849Z,27.30
2019-03-21T05:58:39.107Z,30.40
2019-03-21T06:01:09.951Z,33.13
2019-03-21T06:03:59.288Z,30.83
2019-03-21T06:06:32.486Z,33.53
2019-03-21T06:09:06.073Z,32.07
2019-03-21T06:11:39.510Z,32.27
2019-03-21T06:14:14.025Z,32.47
2019-03-21T06:16:45.351Z,28.60
2019-03-21T06:19:22.324Z,31.30
2019-03-21T06:22:12.726Z,30.67
2019-03-21T06:25:01.910Z,32.23
2019-03-21T06:27:32.535Z,40.17
2019-03-21T06:30:03.455Z,36.30
2019-03-21T06:32:34.002Z,43.50
2019-03-21T06:35:04.501Z,37.23
2019-03-21T06:37:35.247Z,35.67
2019-03-21T06:40:06.801Z,46.20
2019-03-21T06:42:39.141Z,41.50
2019-03-21T06:45:11.865Z,39.80
2019-03-21T06:47:43.296Z,43.57
2019-03-21T06:50:14.337Z,37.47
2019-03-21T06:52:45.151Z,34.03
2019-03-21T06:55:19.288Z,36.53
2019-03-21T06:57:50.122Z,46.07
2019-03-21T07:00:20.359Z,72.97
2019-03-21T07:02:50.987Z,47.67
2019-03-21T07:05:22.514Z,31.93
2019-03-21T07:07:58.097Z,32.73
2019-03-21T07:10:29.521Z,29.00
2019-03-21T07:13:03.456Z,27.37
2019-03-21T07:15:34.464Z,32.23
2019-03-21T07:18:05.624Z,25.50
2019-03-21T07:20:36.873Z,31.33
2019-03-21T07:23:44.054Z,33.70
2019-03-21T07:26:17.854Z,25.40
2019-03-21T07:28:53.505Z,27.67
2019-03-21T07:31:26.185Z,27.83
2019-03-21T07:33:57.203Z,30.00
2019-03-21T07:36:40.754Z,29.13
2019-03-21T07:39:15.914Z,25.80
2019-03-21T07:41:46.836Z,28.07
2019-03-21T07:44:18.284Z,27.87
2019-03-21T07:46:48.914Z,30.20
2019-03-21T07:49:19.754Z,26.60
2019-03-21T07:51:53.962Z,28.33
2019-03-21T07:54:28.089Z,22.63
2019-03-21T07:56:59.929Z,25.70
2019-03-21T07:59:35.474Z,23.17
2019-03-21T08:02:09.497Z,24.67
2019-03-21T08:08:11.891Z,24.10
2019-03-21T08:11:08.854Z,25.30
2019-03-21T08:13:59.034Z,24.30
2019-03-21T08:23:11.055Z,26.30
2019-03-21T08:26:12.519Z,27.33
2019-03-21T08:38:28.475Z,34.03
2019-03-21T08:41:40.278Z,37.97
2019-03-21T08:47:55.048Z,30.50
2019-03-21T09:23:00.284Z,29.03
2019-03-21T09:25:31.538Z,29.57
2019-03-21T09:28:06.144Z,28.37
2019-03-21T09:30:42.523Z,26.20
2019-03-21T09:33:14.482Z,27.20
2019-03-21T09:35:45.934Z,31.60
2019-03-21T09:38:20.965Z,28.57
2019-03-21T09:40:53.848Z,30.13
2019-03-21T09:43:28.154Z,29.23
2019-03-21T09:46:01.109Z,29.73
2019-03-21T09:48:32.304Z,35.70
2019-03-21T09:51:03.543Z,24.40
2019-03-21T09:53:45.555Z,27.33
2019-03-21T09:56:18.014Z,29.73
2019-03-21T09:58:52.847Z,27.67
2019-03-21T10:01:24.913Z,28.40
2019-03-21T10:03:56.974Z,27.87
2019-03-21T10:06:27.815Z,37.90
2019-03-21T10:09:02.845Z,30.77
2019-03-21T10:11:35.312Z,29.47
2019-03-21T10:14:06.566Z,25.43
2019-03-21T10:16:37.502Z,22.53
2019-03-21T10:19:08.544Z,26.57
2019-03-21T10:21:43.540Z,27.17
2019-03-21T10:24:14.412Z,25.60
2019-03-21T10:26:45.559Z,26.30
2019-03-21T10:29:16.284Z,25.67
2019-03-21T10:31:47.545Z,28.07
2019-03-21T10:34:17.756Z,28.13
2019-03-21T10:36:50.946Z,26.47
2019-03-21T10:39:22.913Z,25.03
2019-03-21T10:41:53.550Z,25.57
2019-03-21T10:44:23.763Z,27.80
2019-03-21T10:46:53.884Z,26.80
2019-03-21T10:49:24.509Z,26.20
2019-03-21T10:51:55.550Z,23.83
2019-03-21T10:54:26.073Z,20.80
2019-03-21T10:56:57.424Z,25.20
2019-03-21T10:59:27.954Z,20.60
2019-03-21T11:02:07.134Z,23.47
2019-03-21T11:04:34.078Z,28.73
2019-03-21T11:07:13.073Z,22.23
2019-03-21T11:09:43.993Z,23.53
2019-03-21T11:12:14.835Z,21.83
2019-03-21T11:14:47.531Z,25.67
2019-03-21T11:17:18.544Z,23.43
2019-03-21T11:19:49.684Z,26.37
2019-03-21T11:22:24.724Z,26.73
2019-03-21T11:25:00.783Z,21.87
2019-03-21T11:27:31.420Z,22.50
2019-03-21T11:30:03.490Z,24.83
2019-03-21T11:32:34.726Z,20.17
2019-03-21T11:35:06.152Z,25.23
2019-03-21T11:37:36.904Z,28.27
2019-03-21T11:40:07.966Z,28.27
2019-03-21T11:42:41.346Z,28.93
2019-03-21T11:45:12.404Z,27.37
2019-03-21T11:47:48.667Z,26.20
2019-03-21T11:50:22.343Z,22.23
2019-03-21T11:52:54.942Z,19.93
2019-03-21T11:55:25.345Z,20.83
2019-03-21T11:57:57.005Z,23.77
2019-03-21T12:06:48.365Z,21.33
2019-03-21T12:09:18.797Z,21.53
2019-03-21T12:11:48.915Z,22.20
2019-03-21T12:14:18.925Z,18.67
2019-03-21T12:16:48.942Z,22.77
2019-03-21T12:19:18.954Z,19.70
2019-03-21T12:21:49.093Z,22.03
2019-03-21T12:24:19.093Z,19.80
2019-03-21T12:26:49.729Z,20.93
2019-03-21T12:29:19.943Z,20.67
2019-03-21T12:31:50.476Z,17.97
2019-03-21T12:34:20.705Z,21.20
2019-03-21T12:36:51.112Z,21.87
2019-03-21T12:39:21.242Z,25.03
2019-03-21T12:41:52.174Z,22.73
2019-03-21T12:44:22.704Z,20.27
2019-03-21T12:46:55.898Z,23.33
2019-03-21T12:49:31.544Z,20.60
2019-03-21T12:52:01.354Z,18.83
2019-03-21T12:54:32.603Z,26.17
2019-03-21T12:57:02.724Z,27.73
2019-03-21T12:59:33.143Z,23.80
2019-03-21T13:02:04.084Z,19.53
2019-03-21T13:04:34.104Z,19.93
2019-03-21T13:07:06.992Z,19.63
2019-03-21T13:09:37.334Z,19.27
2019-03-21T13:12:07.634Z,19.73
2019-03-21T13:17:52.934Z,21.40
2019-03-21T13:20:23.354Z,19.47
2019-03-21T13:22:53.892Z,18.93
2019-03-21T13:25:27.592Z,19.57
2019-03-21T13:28:02.149Z,19.07
2019-03-21T13:30:33.464Z,22.40
2019-03-21T13:33:04.294Z,22.53
2019-03-21T13:35:35.543Z,24.43
2019-03-21T13:38:17.034Z,28.80
2019-03-21T13:40:47.856Z,23.17
2019-03-21T13:43:21.564Z,19.43
2019-03-21T13:45:52.193Z,18.20
2019-03-21T13:48:23.553Z,18.43
2019-03-21T13:50:54.683Z,18.70
2019-03-21T13:53:24.693Z,28.57
2019-03-21T13:55:55.943Z,20.50
2019-03-21T13:58:26.148Z,25.10
2019-03-21T14:01:02.734Z,33.43
2019-03-21T14:03:43.015Z,20.00
2019-03-21T14:06:41.984Z,22.27
2019-03-21T14:10:03.493Z,25.10
2019-03-21T14:16:30.314Z,21.93
2019-03-21T14:22:02.360Z,21.33
2019-03-21T14:24:53.843Z,21.67
2019-03-21T14:27:34.553Z,21.77
2019-03-21T14:30:18.128Z,21.13
2019-03-21T14:33:08.631Z,21.93
2019-03-21T14:35:45.453Z,19.40
2019-03-21T14:38:25.750Z,23.97
2019-03-21T14:40:51.744Z,21.43
2019-03-21T14:46:33.956Z,20.57
2019-03-21T14:49:17.495Z,27.07
2019-03-21T14:51:53.042Z,19.47
2019-03-21T15:00:51.354Z,26.43
2019-03-21T15:03:25.476Z,22.27
2019-03-21T15:05:56.413Z,27.57
2019-03-21T15:08:31.163Z,20.57
2019-03-21T15:11:01.975Z,18.37
2019-03-21T15:13:32.234Z,20.27
2019-03-21T15:16:03.035Z,23.00
2019-03-21T15:18:34.394Z,29.27
2019-03-21T15:21:23.688Z,22.80
2019-03-21T15:24:01.882Z,18.27
2019-03-21T15:26:54.494Z,17.40
2019-03-21T15:29:35.458Z,30.83
2019-03-21T15:32:06.934Z,21.83
2019-03-21T15:34:38.695Z,26.53
2019-03-21T15:37:12.912Z,21.30
2019-03-21T15:39:47.511Z,24.23
2019-03-21T15:42:19.152Z,23.27
2019-03-21T15:44:51.543Z,21.37
2019-03-21T15:47:24.435Z,24.70
2019-03-21T15:49:55.464Z,18.77
2019-03-21T15:52:26.303Z,17.30
2019-03-21T15:54:57.702Z,18.37
2019-03-21T15:57:28.496Z,23.00
2019-03-21T16:00:02.107Z,21.43
2019-03-21T16:02:37.973Z,32.93
2019-03-21T16:05:10.113Z,36.70
2019-03-21T16:07:49.663Z,35.37
2019-03-21T16:10:37.894Z,27.43
2019-03-21T16:13:12.514Z,26.77
2019-03-21T16:15:46.024Z,24.33
2019-03-21T16:18:19.144Z,23.07
2019-03-21T16:20:51.993Z,27.70
2019-03-21T16:23:24.786Z,20.37
2019-03-21T16:25:58.381Z,25.03
2019-03-21T16:28:30.864Z,20.20
2019-03-21T16:31:04.573Z,23.77
2019-03-21T16:33:37.144Z,20.33
2019-03-21T16:36:07.693Z,21.73
2019-03-21T16:38:38.794Z,26.93
2019-03-21T16:41:10.444Z,25.07
2019-03-21T16:43:41.483Z,22.90
2019-03-21T16:46:12.651Z,23.93
2019-03-21T16:48:45.023Z,22.23
2019-03-21T16:51:15.945Z,28.20
2019-03-21T16:53:47.296Z,32.47
2019-03-21T16:56:19.065Z,28.83
2019-03-21T16:58:51.959Z,30.93
2019-03-21T17:01:35.474Z,28.07
2019-03-21T17:04:12.454Z,28.83
2019-03-21T17:06:52.095Z,26.37
2019-03-21T17:09:31.824Z,30.03
2019-03-21T17:12:08.108Z,30.47
2019-03-21T17:14:42.414Z,28.97
2019-03-21T17:17:17.986Z,28.30
2019-03-21T17:19:53.028Z,31.13
2019-03-21T17:22:27.198Z,28.60
2019-03-21T17:25:00.906Z,26.83
2019-03-21T17:27:36.175Z,33.43
2019-03-21T17:30:19.890Z,34.30
2019-03-21T18:48:31.232Z,52.10
2019-03-21T19:52:24.402Z,91.47
2019-03-21T19:54:59.363Z,102.87
2019-03-21T19:57:39.294Z,96.93
2019-03-21T20:00:16.068Z,108.17
2019-03-21T20:06:12.735Z,89.80
2019-03-21T20:08:50.023Z,101.47
2019-03-21T20:11:24.432Z,103.47
2019-03-21T20:14:03.855Z,120.57
2019-03-21T20:16:51.663Z,107.30
2019-03-21T20:19:34.721Z,128.60
2019-03-21T20:22:10.592Z,136.03
2019-03-21T20:24:44.154Z,132.40
2019-03-21T20:27:31.529Z,139.27
2019-03-21T20:33:00.160Z,118.13
2019-03-21T20:35:38.148Z,112.93
2019-03-21T20:38:13.749Z,119.07
2019-03-21T20:40:51.672Z,116.17
2019-03-21T20:43:26.101Z,131.10
2019-03-21T20:46:04.822Z,126.47
2019-03-21T20:48:36.089Z,132.27
2019-03-21T20:51:07.496Z,121.83
2019-03-21T20:53:43.154Z,137.27
2019-03-21T20:56:14.895Z,136.37
2019-03-21T20:58:48.803Z,136.80
2019-03-21T21:01:23.123Z,116.80
2019-03-21T21:03:55.497Z,118.40
2019-03-21T21:06:26.439Z,106.93
2019-03-21T21:09:00.874Z,131.07
2019-03-21T21:11:39.481Z,143.67
2019-03-21T21:14:15.657Z,128.40
2019-03-21T21:16:51.291Z,134.57
2019-03-21T21:19:25.493Z,127.67
2019-03-21T21:21:58.487Z,126.03
2019-03-21T21:24:31.049Z,121.20
2019-03-21T21:27:01.921Z,123.07
2019-03-21T21:29:32.441Z,111.23
2019-03-21T21:32:12.635Z,129.23
2019-03-21T21:34:43.041Z,128.87
2019-03-21T21:37:13.809Z,112.17
2019-03-21T21:39:44.161Z,110.50
2019-03-21T21:42:15.111Z,125.87
2019-03-21T21:44:48.400Z,116.43
2019-03-21T21:47:19.162Z,125.93
2019-03-21T21:49:50.001Z,107.33
2019-03-21T21:52:21.008Z,97.93
2019-03-21T21:54:52.249Z,114.27
2019-03-21T21:57:23.489Z,114.33
2019-03-21T22:00:15.013Z,109.27
2019-03-21T22:02:47.889Z,104.43
2019-03-21T22:05:18.941Z,112.83
2019-03-21T22:07:52.661Z,108.07
2019-03-21T22:10:23.381Z,111.10
2019-03-21T22:12:59.967Z,116.37
2019-03-21T22:15:30.721Z,106.27
2019-03-21T22:18:01.731Z,110.33
2019-03-21T22:20:33.928Z,118.53
2019-03-21T22:23:08.229Z,104.00
2019-03-21T22:25:39.140Z,119.60
2019-03-21T22:28:10.284Z,121.20
2019-03-21T22:30:52.081Z,106.13
2019-03-21T22:33:23.520Z,105.27
2019-03-21T22:35:57.438Z,113.17
2019-03-21T22:38:28.077Z,123.77
2019-03-21T22:40:58.997Z,113.33
2019-03-21T22:43:54.537Z,123.07
2019-03-21T22:46:44.904Z,135.53
2019-03-21T22:49:15.653Z,117.07
2019-03-21T22:51:47.919Z,105.83
2019-03-21T22:54:19.972Z,122.83
2019-03-21T22:57:02.697Z,123.83
2019-03-21T22:59:40.177Z,128.83
2019-03-21T23:02:12.758Z,130.60
2019-03-21T23:04:44.942Z,135.23
2019-03-21T23:07:18.945Z,142.37
2019-03-21T23:09:49.167Z,129.67
2019-03-21T23:12:19.894Z,144.90
2019-03-21T23:14:50.328Z,140.53
2019-03-21T23:17:23.147Z,146.83
2019-03-21T23:19:54.864Z,145.37
2019-03-21T23:22:26.128Z,176.73
2019-03-21T23:24:56.980Z,164.17
2019-03-21T23:27:27.369Z,170.90
2019-03-21T23:30:01.159Z,169.50
2019-03-21T23:32:33.638Z,164.53
2019-03-21T23:35:05.907Z,141.17
2019-03-21T23:37:36.945Z,164.27
2019-03-21T23:40:08.418Z,161.23
2019-03-21T23:42:41.709Z,157.47
2019-03-21T23:45:12.642Z,169.57
2019-03-21T23:47:43.167Z,147.93
2019-03-21T23:50:14.506Z,132.43
2019-03-21T23:52:45.884Z,137.87
2019-03-21T23:55:21.141Z,120.90
2019-03-21T23:57:52.456Z,120.77
